Terminal Aerodrome Forecast
Issued by NWS Charleston, WV

Current Version | Previous Version | Text Only | Print | Product List | Glossary Off
Versions: 1 2 3 4 5 6 7 8 9 10 11 12 13 14 15 16 17 18 19 20 21 22 23 24

420
FTUS41 KRLX 260252 AAA
TAFCRW
TAF AMD
KCRW 260252Z 2603/2624 26011G18KT P6SM SHRA OVC010
     FM260500 26010G16KT P6SM BKN010
     FM261300 26009KT P6SM BKN040=

USA.gov is the U.S. government's official web portal to all federal, state and local government web resources and services.